Terminal Aerodrome Forecast
Issued by NWS

Home | Current Version | Previous Version | Text Only | Print | Product List | Glossary Off
Versions: 1 2 3 4 5 6 7 8 9 10 11 12 13 14 15 16 17 18 19

000
FTUS43 KIWX 270850 AAA
TAFSBN
TAF AMD
KSBN 270850Z 2709/2806 24009KT P6SM OVC008
     FM271100 24006KT 4SM BR OVC003
     FM271600 VRB03KT P6SM OVC010
     FM271800 VRB03KT P6SM VCSH OVC015
     FM272000 09004KT P6SM VCSH OVC020
     FM272200 06006KT 5SM RA OVC015
     FM280000 02006KT 1 1/2SM SHRA BR OVC010=

USA.gov is the U.S. government's official web portal to all federal, state and local government web resources and services.